Tacoma/McChord AFB, Washington
Current Conditions -  °F | °C
As of 5:44 PM on Wednesday 22 Oct 2014 (Local Time) from KTCM Reporting Station
Light Rain Light Rain  
Wind Chill: 55°   Ceiling: Unl
Heat Index: 55°   Visibility: 10mi
Dew Point: 54°   Wind: 16mph
Humidity: 94%   Direction: 150°SSE
Pressure: 29.59"   Gusts: 21mph
Location:  47.15°N, 122.48°W
Report Text: KTCM 230044Z AUTO 15014G18KT 10SM -RA FEW034 13/12 A2959 RMK AO2
Loading
Personal Weather Stations






























Interactive Weather Map
Tropical Storm Tracking
New forecast layout! Learn more

10-Day Weather Forecast

Advertisements
Track Severe Weather on mobile